Terminal Aerodrome Forecast
Issued by NWS Jacksonville, FL

Home | Current Version | Previous Version | Text Only | Print | Product List | Glossary On
Versions: 1 2 3 4 5 6 7 8 9 10 11 12 13 14 15 16 17 18 19 20 21 22 23
019
FTUS42 KJAX 180539
TAFJAX
TAF
KJAX 180539Z 1806/1906 34009KT P6SM SCT025 BKN040
     FM180900 36010KT P6SM SCT020 BKN030
      TEMPO 1811/1814 BKN018 OVC030
     FM181400 04013G23KT P6SM VCSH SCT025 BKN035
     FM182300 03010KT P6SM SCT030 BKN050=

USA.gov is the U.S. government's official web portal to all federal, state and local government web resources and services.